createdAt,value
2019-01-28T00:00:39.212Z,21.14
2019-01-28T00:02:40.859Z,21.20
2019-01-28T00:04:42.454Z,21.24
2019-01-28T00:06:44.049Z,21.21
2019-01-28T00:08:45.654Z,21.21
2019-01-28T00:10:47.292Z,21.18
2019-01-28T00:12:48.944Z,21.19
2019-01-28T00:14:50.545Z,21.17
2019-01-28T00:16:52.141Z,21.17
2019-01-28T00:18:53.749Z,21.17
2019-01-28T00:20:55.345Z,21.17
2019-01-28T00:22:56.954Z,20.95
2019-01-28T00:24:58.593Z,21.21
2019-01-28T00:27:00.192Z,21.19
2019-01-28T00:29:01.785Z,21.06
2019-01-28T00:31:03.386Z,21.19
2019-01-28T00:33:04.993Z,21.16
2019-01-28T00:35:06.604Z,21.16
2019-01-28T00:37:08.228Z,21.17
2019-01-28T00:39:09.840Z,21.16
2019-01-28T00:41:11.438Z,21.14
2019-01-28T00:43:13.091Z,21.13
2019-01-28T00:45:14.685Z,21.11
2019-01-28T00:47:16.291Z,21.13
2019-01-28T00:49:17.935Z,21.10
2019-01-28T00:51:19.548Z,21.10
2019-01-28T00:53:21.152Z,21.10
2019-01-28T00:55:22.800Z,21.09
2019-01-28T00:57:24.401Z,21.09
2019-01-28T00:59:26.019Z,21.10
2019-01-28T01:01:27.618Z,21.09
2019-01-28T01:03:29.225Z,21.09
2019-01-28T01:05:30.827Z,21.10
2019-01-28T01:07:32.476Z,21.10
2019-01-28T01:09:34.073Z,21.08
2019-01-28T01:11:35.686Z,21.06
2019-01-28T01:13:37.300Z,21.09
2019-01-28T01:15:38.900Z,21.07
2019-01-28T01:17:40.493Z,21.03
2019-01-28T01:19:42.160Z,20.99
2019-01-28T01:21:43.758Z,20.96
2019-01-28T01:23:45.364Z,20.86
2019-01-28T01:25:46.957Z,20.96
2019-01-28T01:27:48.583Z,21.00
2019-01-28T01:29:50.224Z,21.00
2019-01-28T01:31:51.827Z,21.04
2019-01-28T01:33:53.421Z,21.01
2019-01-28T01:35:55.027Z,21.00
2019-01-28T01:37:56.675Z,20.98
2019-01-28T01:39:58.270Z,20.97
2019-01-28T01:41:59.862Z,20.96
2019-01-28T01:44:01.474Z,20.96
2019-01-28T01:46:03.059Z,20.97
2019-01-28T01:48:04.705Z,21.01
2019-01-28T01:50:06.337Z,20.98
2019-01-28T01:52:07.929Z,20.95
2019-01-28T01:54:09.540Z,20.95
2019-01-28T01:56:11.138Z,20.95
2019-01-28T01:58:13.047Z,20.90
2019-01-28T02:00:14.377Z,21.05
2019-01-28T02:02:15.998Z,21.16
2019-01-28T02:04:17.607Z,21.13
2019-01-28T02:06:19.206Z,21.09
2019-01-28T02:08:20.801Z,21.03
2019-01-28T02:10:22.416Z,21.00
2019-01-28T02:12:24.045Z,20.99
2019-01-28T02:14:25.697Z,20.98
2019-01-28T02:16:27.290Z,20.98
2019-01-28T02:18:28.889Z,20.96
2019-01-28T02:20:30.476Z,20.94
2019-01-28T02:22:32.074Z,20.95
2019-01-28T02:24:33.673Z,20.96
2019-01-28T02:26:35.259Z,20.98
2019-01-28T02:28:36.853Z,20.96
2019-01-28T02:30:38.489Z,20.91
2019-01-28T02:32:40.089Z,20.88
2019-01-28T02:34:41.702Z,20.89
2019-01-28T02:36:43.312Z,20.90
2019-01-28T02:38:44.915Z,20.92
2019-01-28T02:40:46.525Z,20.89
2019-01-28T02:42:48.181Z,20.90
2019-01-28T02:44:49.794Z,20.92
2019-01-28T02:46:51.389Z,20.98
2019-01-28T02:48:53.054Z,21.01
2019-01-28T02:50:54.745Z,21.03
2019-01-28T02:52:57.033Z,21.08
2019-01-28T02:54:58.718Z,21.15
2019-01-28T02:57:00.401Z,21.08
2019-01-28T02:59:02.118Z,20.95
2019-01-28T03:01:04.296Z,20.96
2019-01-28T03:03:06.875Z,20.99
2019-01-28T03:05:08.627Z,21.00
2019-01-28T03:07:10.345Z,21.02
2019-01-28T03:09:12.032Z,21.11
2019-01-28T03:11:14.614Z,21.14
2019-01-28T03:13:16.303Z,21.15
2019-01-28T03:15:17.994Z,21.16
2019-01-28T03:17:19.656Z,21.17
2019-01-28T03:19:21.281Z,21.16
2019-01-28T03:21:22.913Z,21.17
2019-01-28T03:23:24.519Z,21.15
2019-01-28T03:25:26.192Z,21.22
2019-01-28T03:27:27.846Z,21.31
2019-01-28T03:29:29.589Z,21.32
2019-01-28T03:31:31.219Z,21.31
2019-01-28T03:33:32.826Z,21.30
2019-01-28T03:35:34.550Z,21.26
2019-01-28T03:37:36.257Z,21.23
2019-01-28T03:39:37.889Z,21.42
2019-01-28T03:41:39.548Z,21.17
2019-01-28T03:43:41.166Z,21.02
2019-01-28T03:45:42.776Z,20.89
2019-01-28T03:47:44.406Z,20.90
2019-01-28T03:49:46.172Z,21.24
2019-01-28T03:51:47.816Z,21.29
2019-01-28T03:53:49.607Z,21.07
2019-01-28T03:55:51.225Z,20.89
2019-01-28T03:57:52.848Z,20.75
2019-01-28T03:59:54.487Z,20.53
2019-01-28T04:01:56.121Z,20.49
2019-01-28T04:03:57.721Z,20.53
2019-01-28T04:05:59.311Z,20.54
2019-01-28T04:08:01.166Z,20.52
2019-01-28T04:10:02.826Z,20.54
2019-01-28T04:12:04.421Z,20.54
2019-01-28T04:14:06.067Z,20.55
2019-01-28T04:16:07.671Z,20.56
2019-01-28T04:18:09.285Z,20.58
2019-01-28T04:20:10.926Z,20.61
2019-01-28T04:22:12.512Z,20.67
2019-01-28T04:24:14.110Z,20.72
2019-01-28T04:26:15.734Z,20.78
2019-01-28T04:28:17.343Z,20.83
2019-01-28T04:30:18.981Z,20.89
2019-01-28T04:32:20.583Z,20.93
2019-01-28T04:34:22.228Z,20.97
2019-01-28T04:36:23.841Z,21.00
2019-01-28T04:38:25.442Z,21.02
2019-01-28T04:40:27.042Z,21.01
2019-01-28T04:42:28.681Z,21.02
2019-01-28T04:44:30.278Z,20.99
2019-01-28T04:46:31.881Z,20.97
2019-01-28T04:48:33.518Z,20.93
2019-01-28T04:50:35.113Z,20.88
2019-01-28T04:52:36.710Z,20.80
2019-01-28T04:54:38.336Z,20.75
2019-01-28T04:56:39.930Z,20.68
2019-01-28T04:58:41.525Z,20.61
2019-01-28T05:00:43.157Z,20.55
2019-01-28T05:02:44.753Z,20.49
2019-01-28T05:04:46.365Z,20.45
2019-01-28T05:06:48.023Z,20.42
2019-01-28T05:08:49.646Z,20.40
2019-01-28T05:10:51.252Z,20.38
2019-01-28T05:12:52.854Z,20.36
2019-01-28T05:14:54.466Z,20.36
2019-01-28T05:16:56.083Z,20.34
2019-01-28T05:18:57.722Z,20.36
2019-01-28T05:20:59.317Z,20.33
2019-01-28T05:23:01.084Z,20.33
2019-01-28T05:25:02.713Z,20.34
2019-01-28T05:27:04.323Z,20.34
2019-01-28T05:29:05.919Z,20.31
2019-01-28T05:31:07.513Z,20.32
2019-01-28T05:33:09.109Z,20.33
2019-01-28T05:35:10.706Z,20.37
2019-01-28T05:37:12.346Z,20.38
2019-01-28T05:39:13.938Z,20.41
2019-01-28T05:41:15.530Z,20.47
2019-01-28T05:43:17.125Z,20.53
2019-01-28T05:45:18.737Z,20.61
2019-01-28T05:47:20.359Z,20.66
2019-01-28T05:49:21.957Z,20.72
2019-01-28T05:51:23.591Z,20.78
2019-01-28T05:53:25.186Z,20.82
2019-01-28T05:55:26.767Z,20.87
2019-01-28T05:57:28.390Z,20.92
2019-01-28T05:59:30.001Z,20.94
2019-01-28T06:01:31.611Z,20.94
2019-01-28T06:03:33.205Z,20.95
2019-01-28T06:05:34.816Z,20.95
2019-01-28T06:07:36.416Z,20.96
2019-01-28T06:09:38.053Z,20.95
2019-01-28T06:11:39.663Z,20.92
2019-01-28T06:13:41.265Z,20.76
2019-01-28T06:15:42.852Z,20.86
2019-01-28T06:17:44.455Z,20.82
2019-01-28T06:19:46.062Z,20.79
2019-01-28T06:21:47.713Z,20.75
2019-01-28T06:23:49.319Z,20.73
2019-01-28T06:25:50.924Z,20.70
2019-01-28T06:27:52.517Z,20.65
2019-01-28T06:29:54.100Z,20.61
2019-01-28T06:31:55.708Z,20.60
2019-01-28T06:33:57.348Z,20.56
2019-01-28T06:35:58.945Z,20.54
2019-01-28T06:38:00.552Z,20.51
2019-01-28T06:40:02.192Z,20.48
2019-01-28T06:42:03.804Z,20.46
2019-01-28T06:44:05.408Z,20.43
2019-01-28T06:46:07.015Z,20.41
2019-01-28T06:48:08.665Z,20.38
2019-01-28T06:50:10.267Z,20.38
2019-01-28T06:52:11.880Z,20.37
2019-01-28T06:54:13.522Z,20.38
2019-01-28T06:56:15.131Z,20.34
2019-01-28T06:58:16.739Z,20.36
2019-01-28T07:00:18.389Z,20.36
2019-01-28T07:02:20.008Z,20.36
2019-01-28T07:04:21.601Z,20.38
2019-01-28T07:06:23.240Z,20.41
2019-01-28T07:08:24.840Z,20.43
2019-01-28T07:10:26.519Z,20.47
2019-01-28T07:12:28.166Z,20.52
2019-01-28T07:14:29.762Z,20.60
2019-01-28T07:16:31.358Z,20.65
2019-01-28T07:18:32.953Z,20.73
2019-01-28T07:20:34.594Z,20.79
2019-01-28T07:22:36.189Z,20.83
2019-01-28T07:24:37.785Z,20.86
2019-01-28T07:26:39.406Z,20.88
2019-01-28T07:28:41.015Z,20.91
2019-01-28T07:30:42.623Z,20.92
2019-01-28T07:32:44.263Z,20.91
2019-01-28T07:34:45.859Z,20.92
2019-01-28T07:36:47.461Z,20.93
2019-01-28T07:38:49.078Z,20.91
2019-01-28T07:40:50.694Z,20.90
2019-01-28T07:42:52.304Z,20.87
2019-01-28T07:44:53.957Z,20.84
2019-01-28T07:46:55.586Z,20.81
2019-01-28T07:48:57.231Z,20.78
2019-01-28T07:50:58.820Z,20.76
2019-01-28T07:53:00.418Z,20.72
2019-01-28T07:55:02.076Z,20.70
2019-01-28T07:57:04.296Z,20.65
2019-01-28T07:59:05.959Z,20.64
2019-01-28T08:01:07.558Z,20.61
2019-01-28T08:03:09.167Z,20.58
2019-01-28T08:05:10.752Z,20.56
2019-01-28T08:07:12.375Z,20.54
2019-01-28T08:09:13.979Z,20.49
2019-01-28T08:11:15.590Z,20.49
2019-01-28T08:13:17.185Z,20.47
2019-01-28T08:15:18.782Z,20.44
2019-01-28T08:17:20.393Z,20.32
2019-01-28T08:19:22.032Z,20.42
2019-01-28T08:21:23.627Z,20.41
2019-01-28T08:23:25.240Z,20.40
2019-01-28T08:25:26.851Z,20.38
2019-01-28T08:27:28.450Z,20.39
2019-01-28T08:29:30.083Z,20.41
2019-01-28T08:31:31.685Z,20.41
2019-01-28T08:33:33.335Z,20.43
2019-01-28T08:35:34.937Z,20.44
2019-01-28T08:37:36.540Z,20.49
2019-01-28T08:39:38.165Z,20.50
2019-01-28T08:41:39.786Z,20.56
2019-01-28T08:43:41.385Z,20.60
2019-01-28T08:45:42.978Z,20.66
2019-01-28T08:47:44.607Z,20.72
2019-01-28T08:49:46.216Z,20.77
2019-01-28T08:51:47.818Z,20.82
2019-01-28T08:53:49.413Z,20.84
2019-01-28T08:55:51.024Z,20.88
2019-01-28T08:57:52.645Z,20.90
2019-01-28T08:59:54.242Z,20.91
2019-01-28T09:01:55.887Z,20.92
2019-01-28T09:03:57.482Z,20.90
2019-01-28T09:05:59.077Z,20.88
2019-01-28T09:08:00.713Z,20.87
2019-01-28T09:10:02.305Z,20.85
2019-01-28T09:12:03.945Z,20.82
2019-01-28T09:14:05.537Z,20.79
2019-01-28T09:16:07.134Z,20.77
2019-01-28T09:18:08.752Z,20.74
2019-01-28T09:20:11.290Z,20.73
2019-01-28T09:22:12.038Z,20.70
2019-01-28T09:24:13.647Z,20.68
2019-01-28T09:26:15.251Z,20.66
2019-01-28T09:28:16.895Z,20.64
2019-01-28T09:30:18.479Z,20.61
2019-01-28T09:32:20.083Z,20.58
2019-01-28T09:34:21.717Z,20.55
2019-01-28T09:36:23.328Z,20.53
2019-01-28T09:38:24.929Z,20.51
2019-01-28T09:40:26.584Z,20.50
2019-01-28T09:42:28.188Z,20.50
2019-01-28T09:44:29.781Z,20.47
2019-01-28T09:46:31.377Z,20.46
2019-01-28T09:48:34.296Z,20.43
2019-01-28T09:50:34.645Z,20.40
2019-01-28T09:52:36.291Z,20.35
2019-01-28T09:54:38.672Z,20.31
2019-01-28T09:56:40.275Z,20.25
2019-01-28T09:58:41.869Z,20.21
2019-01-28T10:00:43.451Z,20.18
2019-01-28T10:02:45.032Z,20.17
2019-01-28T10:04:46.672Z,20.20
2019-01-28T10:06:48.256Z,20.29
2019-01-28T10:08:49.857Z,20.38
2019-01-28T10:10:51.453Z,20.47
2019-01-28T10:12:53.059Z,20.57
2019-01-28T10:14:54.669Z,20.68
2019-01-28T10:16:56.293Z,20.73
2019-01-28T10:18:57.894Z,20.79
2019-01-28T10:20:59.543Z,20.86
2019-01-28T10:23:01.151Z,20.90
2019-01-28T10:25:02.758Z,20.96
2019-01-28T10:27:04.390Z,20.99
2019-01-28T10:29:05.971Z,21.01
2019-01-28T10:31:07.584Z,21.03
2019-01-28T10:33:09.181Z,21.03
2019-01-28T10:35:10.832Z,21.04
2019-01-28T10:37:12.429Z,21.03
2019-01-28T10:39:14.029Z,21.03
2019-01-28T10:41:15.634Z,21.03
2019-01-28T10:43:17.220Z,21.01
2019-01-28T10:45:18.804Z,20.98
2019-01-28T10:47:20.450Z,20.96
2019-01-28T10:49:22.060Z,20.95
2019-01-28T10:51:23.658Z,20.94
2019-01-28T10:53:25.271Z,20.94
2019-01-28T10:55:26.856Z,20.93
2019-01-28T10:57:28.467Z,20.89
2019-01-28T10:59:30.100Z,20.87
2019-01-28T11:01:31.709Z,20.84
2019-01-28T11:03:33.305Z,20.78
2019-01-28T11:05:34.938Z,20.74
2019-01-28T11:07:36.544Z,20.71
2019-01-28T11:09:38.182Z,20.67
2019-01-28T11:11:39.897Z,20.64
2019-01-28T11:13:42.122Z,20.62
2019-01-28T11:15:43.727Z,20.60
2019-01-28T11:17:45.366Z,20.57
2019-01-28T11:19:47.026Z,20.35
2019-01-28T11:21:48.648Z,20.52
2019-01-28T11:23:50.259Z,20.52
2019-01-28T11:25:51.871Z,20.51
2019-01-28T11:27:53.514Z,20.49
2019-01-28T11:29:55.236Z,20.49
2019-01-28T11:31:56.899Z,20.49
2019-01-28T11:33:58.473Z,20.45
2019-01-28T11:36:05.172Z,20.48
2019-01-28T11:38:01.891Z,20.48
2019-01-28T11:40:03.542Z,20.49
2019-01-28T11:42:05.078Z,20.50
2019-01-28T11:44:06.824Z,20.52
2019-01-28T11:46:08.413Z,20.52
2019-01-28T11:48:10.035Z,20.56
2019-01-28T11:50:11.653Z,20.63
2019-01-28T11:52:13.264Z,20.68
2019-01-28T11:54:14.877Z,20.73
2019-01-28T11:56:16.536Z,20.76
2019-01-28T11:58:18.130Z,20.83
2019-01-28T12:00:19.740Z,20.87
2019-01-28T12:02:21.341Z,20.90
2019-01-28T12:04:22.952Z,20.91
2019-01-28T12:06:24.564Z,20.94
2019-01-28T12:08:26.204Z,20.93
2019-01-28T12:10:27.816Z,20.95
2019-01-28T12:12:29.418Z,20.93
2019-01-28T12:14:31.014Z,20.94
2019-01-28T12:16:32.665Z,20.92
2019-01-28T12:18:34.292Z,20.90
2019-01-28T12:20:35.922Z,20.90
2019-01-28T12:22:37.521Z,20.86
2019-01-28T12:24:39.117Z,20.82
2019-01-28T12:26:40.722Z,20.81
2019-01-28T12:28:42.362Z,20.77
2019-01-28T12:30:44.012Z,20.73
2019-01-28T12:32:45.620Z,20.70
2019-01-28T12:34:47.228Z,20.67
2019-01-28T12:36:48.825Z,20.63
2019-01-28T12:38:50.461Z,20.56
2019-01-28T12:40:52.069Z,20.56
2019-01-28T12:42:53.711Z,20.53
2019-01-28T12:44:55.316Z,20.51
2019-01-28T12:46:56.910Z,20.49
2019-01-28T12:48:58.516Z,20.47
2019-01-28T12:51:00.153Z,20.32
2019-01-28T12:53:01.753Z,20.42
2019-01-28T12:55:03.356Z,20.37
2019-01-28T12:57:04.950Z,20.39
2019-01-28T12:59:09.094Z,20.38
2019-01-28T13:01:08.207Z,20.38
2019-01-28T13:03:09.846Z,20.40
2019-01-28T13:05:11.460Z,20.38
2019-01-28T13:07:13.053Z,20.39
2019-01-28T13:09:14.664Z,20.38
2019-01-28T13:11:16.331Z,20.42
2019-01-28T13:13:18.020Z,20.45
2019-01-28T13:15:19.696Z,20.47
2019-01-28T13:17:21.308Z,20.52
2019-01-28T13:19:29.851Z,20.49
2019-01-28T13:21:24.608Z,20.64
2019-01-28T13:23:26.224Z,20.68
2019-01-28T13:25:27.827Z,20.72
2019-01-28T13:27:29.470Z,20.73
2019-01-28T13:29:31.070Z,20.78
2019-01-28T13:31:32.910Z,20.81
2019-01-28T13:33:34.321Z,20.82
2019-01-28T13:35:35.910Z,20.85
2019-01-28T13:37:37.491Z,20.86
2019-01-28T13:39:39.105Z,20.86
2019-01-28T13:41:40.726Z,20.85
2019-01-28T13:43:42.329Z,20.83
2019-01-28T13:45:43.970Z,20.83
2019-01-28T13:47:45.570Z,20.79
2019-01-28T13:49:47.163Z,20.66
2019-01-28T13:51:48.805Z,20.77
2019-01-28T13:53:50.445Z,20.74
2019-01-28T13:55:52.052Z,20.72
2019-01-28T13:57:53.704Z,20.70
2019-01-28T13:59:55.305Z,20.68
2019-01-28T14:01:56.905Z,20.64
2019-01-28T14:03:58.674Z,20.62
2019-01-28T14:06:00.288Z,20.57
2019-01-28T14:08:01.894Z,20.56
2019-01-28T14:10:03.489Z,20.52
2019-01-28T14:12:05.091Z,20.59
2019-01-28T14:14:06.690Z,20.81
2019-01-28T14:16:08.328Z,20.90
2019-01-28T14:18:09.940Z,20.98
2019-01-28T14:20:11.538Z,21.00
2019-01-28T14:22:13.133Z,20.99
2019-01-28T14:24:14.800Z,21.02
2019-01-28T14:26:16.412Z,21.02
2019-01-28T14:28:18.018Z,20.98
2019-01-28T14:30:19.609Z,21.00
2019-01-28T14:32:21.220Z,21.01
2019-01-28T14:34:22.819Z,21.01
2019-01-28T14:36:24.453Z,21.02
2019-01-28T14:38:26.114Z,21.02
2019-01-28T14:40:27.792Z,21.03
2019-01-28T14:42:29.492Z,21.04
2019-01-28T14:44:31.133Z,21.04
2019-01-28T14:46:32.744Z,21.12
2019-01-28T14:48:34.342Z,21.14
2019-01-28T14:50:35.960Z,21.15
2019-01-28T14:52:37.565Z,21.15
2019-01-28T14:54:39.176Z,21.17
2019-01-28T14:56:40.837Z,21.16
2019-01-28T14:58:42.433Z,21.17
2019-01-28T15:00:44.031Z,21.17
2019-01-28T15:02:45.642Z,21.16
2019-01-28T15:04:47.241Z,21.10
2019-01-28T15:06:48.843Z,21.04
2019-01-28T15:08:50.482Z,20.98
2019-01-28T15:10:52.089Z,20.92
2019-01-28T15:12:53.718Z,20.68
2019-01-28T15:14:55.332Z,20.63
2019-01-28T15:16:56.930Z,20.65
2019-01-28T15:18:58.576Z,20.63
2019-01-28T15:21:00.248Z,20.79
2019-01-28T15:23:01.842Z,21.24
2019-01-28T15:25:03.438Z,21.58
2019-01-28T15:27:05.085Z,21.87
2019-01-28T15:29:06.682Z,22.07
2019-01-28T15:31:08.290Z,22.30
2019-01-28T15:33:09.934Z,22.24
2019-01-28T15:35:11.586Z,22.48
2019-01-28T15:37:13.195Z,22.55
2019-01-28T15:39:14.804Z,22.69
2019-01-28T15:41:16.411Z,22.82
2019-01-28T15:43:18.019Z,22.88
2019-01-28T15:45:19.645Z,22.94
2019-01-28T15:47:21.243Z,23.06
2019-01-28T15:49:22.888Z,23.21
2019-01-28T15:51:24.475Z,23.28
2019-01-28T15:53:26.102Z,23.38
2019-01-28T15:55:27.716Z,23.53
2019-01-28T15:57:29.325Z,23.55
2019-01-28T15:59:30.975Z,23.44
2019-01-28T16:01:32.577Z,23.53
2019-01-28T16:03:34.454Z,23.57
2019-01-28T16:05:36.146Z,23.67
2019-01-28T16:07:37.777Z,23.76
2019-01-28T16:09:39.373Z,23.88
2019-01-28T16:11:40.996Z,23.75
2019-01-28T16:13:42.598Z,23.70
2019-01-28T16:15:44.238Z,23.76
2019-01-28T16:17:45.848Z,23.70
2019-01-28T16:19:47.444Z,23.54
2019-01-28T16:21:49.081Z,23.46
2019-01-28T16:23:50.699Z,23.50
2019-01-28T16:25:52.288Z,23.45
2019-01-28T16:27:53.882Z,23.56
2019-01-28T16:29:55.477Z,23.80
2019-01-28T16:31:57.128Z,23.46
2019-01-28T16:33:58.743Z,22.89
2019-01-28T16:36:00.349Z,22.60
2019-01-28T16:38:01.974Z,22.60
2019-01-28T16:40:03.559Z,22.55
2019-01-28T16:42:05.171Z,22.62
2019-01-28T16:44:06.765Z,22.81
2019-01-28T16:46:08.404Z,23.30
2019-01-28T16:48:10.006Z,23.13
2019-01-28T16:50:11.605Z,23.03
2019-01-28T16:52:13.245Z,23.23
2019-01-28T16:54:14.867Z,23.36
2019-01-28T16:56:16.540Z,23.20
2019-01-28T16:58:18.143Z,23.55
2019-01-28T17:00:19.741Z,23.43
2019-01-28T17:02:21.372Z,23.21
2019-01-28T17:04:23.004Z,23.21
2019-01-28T17:06:24.602Z,23.46
2019-01-28T17:08:26.203Z,23.55
2019-01-28T17:10:27.800Z,23.47
2019-01-28T17:12:29.483Z,23.27
2019-01-28T17:14:31.070Z,22.80
2019-01-28T17:16:32.707Z,22.13
2019-01-28T17:18:34.314Z,22.05
2019-01-28T17:20:36.019Z,21.99
2019-01-28T17:22:37.642Z,21.96
2019-01-28T17:24:39.340Z,21.92
2019-01-28T17:26:40.978Z,21.89
2019-01-28T17:28:42.574Z,21.84
2019-01-28T17:30:44.179Z,21.82
2019-01-28T17:32:45.783Z,21.83
2019-01-28T17:34:47.382Z,21.84
2019-01-28T17:36:49.015Z,21.88
2019-01-28T17:38:50.643Z,21.94
2019-01-28T17:40:52.256Z,22.00
2019-01-28T17:42:53.863Z,22.05
2019-01-28T17:44:55.503Z,22.07
2019-01-28T17:46:57.126Z,22.09
2019-01-28T17:48:58.767Z,22.12
2019-01-28T17:51:00.410Z,22.14
2019-01-28T17:53:02.020Z,22.16
2019-01-28T17:55:03.618Z,22.18
2019-01-28T17:57:05.235Z,22.17
2019-01-28T17:59:06.840Z,22.16
2019-01-28T18:01:08.465Z,22.16
2019-01-28T18:03:10.076Z,22.13
2019-01-28T18:05:11.674Z,22.12
2019-01-28T18:07:13.287Z,22.10
2019-01-28T18:09:14.896Z,22.10
2019-01-28T18:11:16.537Z,22.08
2019-01-28T18:13:18.139Z,22.04
2019-01-28T18:15:19.755Z,21.99
2019-01-28T18:17:21.348Z,21.93
2019-01-28T18:19:22.955Z,21.64
2019-01-28T18:21:24.628Z,21.82
2019-01-28T18:23:26.231Z,22.20
2019-01-28T18:25:27.848Z,22.68
2019-01-28T18:27:29.504Z,22.92
2019-01-28T18:29:31.116Z,23.01
2019-01-28T18:31:34.694Z,23.34
2019-01-28T18:33:36.364Z,23.29
2019-01-28T18:35:38.017Z,23.36
2019-01-28T18:37:39.645Z,23.21
2019-01-28T18:39:41.365Z,23.07
2019-01-28T18:41:42.969Z,22.92
2019-01-28T18:43:44.570Z,22.96
2019-01-28T18:45:46.194Z,22.96
2019-01-28T18:47:47.798Z,23.08
2019-01-28T18:49:49.393Z,23.04
2019-01-28T18:51:51.029Z,23.21
2019-01-28T18:53:52.640Z,23.05
2019-01-28T18:55:55.702Z,23.30
2019-01-28T18:57:55.903Z,23.30
2019-01-28T18:59:57.524Z,23.22
2019-01-28T19:01:59.126Z,23.28
2019-01-28T19:04:00.744Z,23.24
2019-01-28T19:06:02.337Z,23.07
2019-01-28T19:08:03.948Z,23.26
2019-01-28T19:10:05.560Z,23.32
2019-01-28T19:12:07.153Z,23.02
2019-01-28T19:14:24.145Z,22.70
2019-01-28T19:16:28.316Z,22.85
2019-01-28T19:18:33.566Z,23.01
2019-01-28T19:20:35.166Z,23.03
2019-01-28T19:22:36.846Z,23.26
2019-01-28T19:24:38.459Z,23.13
2019-01-28T19:26:40.072Z,23.15
2019-01-28T19:28:41.679Z,23.21
2019-01-28T19:30:43.278Z,23.20
2019-01-28T19:32:45.475Z,23.10
2019-01-28T19:34:47.063Z,23.18
2019-01-28T19:36:48.656Z,23.01
2019-01-28T19:38:50.249Z,22.88
2019-01-28T19:40:51.835Z,22.79
2019-01-28T19:42:53.443Z,22.34
2019-01-28T19:44:55.060Z,22.59
2019-01-28T19:46:56.663Z,22.56
2019-01-28T19:48:58.361Z,22.67
2019-01-28T19:50:59.951Z,23.04
2019-01-28T19:53:01.549Z,23.30
2019-01-28T19:55:03.215Z,23.31
2019-01-28T19:57:04.966Z,23.32
2019-01-28T19:59:06.709Z,23.34
2019-01-28T20:01:08.379Z,23.19
2019-01-28T20:03:10.022Z,23.47
2019-01-28T20:05:11.622Z,23.58
2019-01-28T20:07:13.239Z,23.47
2019-01-28T20:09:14.852Z,23.49
2019-01-28T20:11:16.492Z,23.59
2019-01-28T20:13:18.128Z,23.04
2019-01-28T20:15:19.725Z,22.66
2019-01-28T20:17:21.331Z,22.65
2019-01-28T20:19:22.916Z,22.54
2019-01-28T20:21:24.540Z,22.70
2019-01-28T20:23:26.977Z,22.96
2019-01-28T20:25:27.831Z,23.21
2019-01-28T20:27:29.476Z,23.07
2019-01-28T20:29:31.153Z,23.08
2019-01-28T20:31:32.755Z,23.11
2019-01-28T20:33:34.357Z,23.19
2019-01-28T20:35:35.994Z,23.24
2019-01-28T20:37:37.607Z,23.22
2019-01-28T20:39:39.192Z,23.15
2019-01-28T20:41:40.832Z,23.11
2019-01-28T20:43:42.455Z,23.12
2019-01-28T20:45:45.187Z,23.08
2019-01-28T20:47:45.782Z,23.15
2019-01-28T20:49:47.391Z,23.09
2019-01-28T20:51:49.026Z,23.24
2019-01-28T20:53:50.676Z,23.02
2019-01-28T20:55:52.288Z,22.86
2019-01-28T20:57:53.912Z,22.82
2019-01-28T20:59:55.547Z,22.79
2019-01-28T21:01:57.157Z,22.75
2019-01-28T21:03:58.801Z,22.72
2019-01-28T21:06:00.387Z,22.51
2019-01-28T21:08:02.023Z,22.22
2019-01-28T21:10:03.703Z,22.35
2019-01-28T21:12:05.323Z,22.42
2019-01-28T21:14:06.951Z,22.44
2019-01-28T21:16:08.569Z,22.44
2019-01-28T21:18:10.168Z,22.47
2019-01-28T21:20:12.452Z,22.51
2019-01-28T21:22:14.087Z,22.30
2019-01-28T21:24:15.685Z,22.04
2019-01-28T21:26:17.282Z,21.86
2019-01-28T21:28:18.932Z,21.71
2019-01-28T21:30:20.530Z,21.61
2019-01-28T21:32:22.149Z,21.55
2019-01-28T21:34:23.785Z,21.50
2019-01-28T21:36:25.377Z,21.44
2019-01-28T21:38:30.632Z,21.43
2019-01-28T21:40:32.373Z,21.43
2019-01-28T21:42:33.998Z,21.42
2019-01-28T21:44:35.597Z,21.44
2019-01-28T21:46:37.185Z,21.44
2019-01-28T21:48:38.772Z,21.45
2019-01-28T21:50:40.375Z,21.48
2019-01-28T21:52:41.978Z,21.48
2019-01-28T21:54:43.607Z,21.24
2019-01-28T21:56:45.196Z,21.44
2019-01-28T21:58:46.800Z,21.41
2019-01-28T22:00:48.479Z,21.41
2019-01-28T22:02:50.098Z,21.40
2019-01-28T22:04:51.716Z,21.37
2019-01-28T22:06:53.318Z,21.37
2019-01-28T22:08:54.923Z,21.37
2019-01-28T22:10:56.537Z,21.36
2019-01-28T22:12:58.179Z,21.32
2019-01-28T22:14:59.773Z,21.33
2019-01-28T22:17:01.384Z,21.31
2019-01-28T22:19:02.987Z,21.30
2019-01-28T22:21:04.585Z,21.32
2019-01-28T22:23:06.195Z,21.32
2019-01-28T22:25:07.808Z,21.37
2019-01-28T22:27:09.414Z,21.36
2019-01-28T22:29:11.037Z,21.37
2019-01-28T22:31:12.648Z,21.35
2019-01-28T22:33:14.236Z,21.39
2019-01-28T22:35:15.839Z,21.26
2019-01-28T22:37:17.487Z,21.24
2019-01-28T22:39:19.095Z,21.24
2019-01-28T22:41:20.698Z,21.24
2019-01-28T22:43:22.321Z,21.21
2019-01-28T22:45:23.958Z,21.24
2019-01-28T22:47:25.562Z,21.29
2019-01-28T22:49:27.167Z,21.29
2019-01-28T22:51:28.769Z,21.25
2019-01-28T22:53:30.366Z,21.28
2019-01-28T22:55:31.971Z,21.25
2019-01-28T22:57:33.615Z,21.23
2019-01-28T22:59:35.210Z,21.22
2019-01-28T23:01:36.810Z,21.25
2019-01-28T23:03:38.465Z,21.25
2019-01-28T23:05:40.075Z,21.25
2019-01-28T23:07:41.731Z,21.25
2019-01-28T23:09:43.375Z,21.25
2019-01-28T23:11:44.984Z,21.24
2019-01-28T23:13:46.596Z,21.25
2019-01-28T23:15:48.249Z,21.26
2019-01-28T23:17:49.848Z,21.29
2019-01-28T23:19:51.460Z,21.25
2019-01-28T23:21:53.057Z,21.03
2019-01-28T23:23:54.640Z,21.29
2019-01-28T23:25:56.238Z,21.31
2019-01-28T23:27:57.877Z,21.31
2019-01-28T23:29:59.473Z,21.28
2019-01-28T23:32:01.070Z,21.27
2019-01-28T23:34:02.666Z,21.26
2019-01-28T23:36:04.249Z,21.24
2019-01-28T23:38:05.851Z,21.26
2019-01-28T23:40:07.477Z,21.27
2019-01-28T23:42:09.081Z,21.25
2019-01-28T23:44:10.664Z,21.23
2019-01-28T23:46:12.305Z,21.21
2019-01-28T23:48:13.892Z,21.18
2019-01-28T23:50:15.476Z,21.18
2019-01-28T23:52:24.532Z,21.17
2019-01-28T23:54:18.717Z,21.15
2019-01-28T23:56:20.357Z,21.13
2019-01-28T23:58:21.957Z,21.11
